KEND/END METAR and TAF weather

Enter ICAO airport designator
Station Type Date Time Source
KEND METAR 2019/10/18 10:56 UTC NOAA

KEND 181056Z AUTO 17010KT 10SM R35C/4500FT CLR 11/07 A2980 RMK AO2 SLP087 T01120073 $


Station Type Date Time Source
KEND Decoded METAR 2019/10/18 10:56 UTC NOAA

Vance Air Force Base / Enid, OK, United States (KEND) 36-20N 097-55W
Oct 18, 2019 - 06:56 AM EDT / 2019.10.18 1056 UTC
Wind: from the S (170 degrees) at 12 MPH (10 KT):0
Visibility: 10 mile(s):0
Sky conditions: clear
Temperature: 52.2 F (11.2 C)
Dew Point: 45.1 F (7.3 C)
Relative Humidity: 76%
Pressure (altimeter): 29.8 in. Hg (1009 hPa)
ob: KEND 181056Z AUTO 17010KT 10SM R35C/4500FT CLR 11/07 A2980 RMK AO2 SLP087 T01120073
cycle: 11

Station Type Date Time Source
KEND TAF 2019/10/18 10:06 UTC NOAA

TAF TAF KEND 181000Z 1810/1916 16012KT 9999 SCT250 QNH2978INS
BECMG 1814/1815 16015G25KT 9999 SCT250 QNH2961INS
BECMG 1817/1818 16025G30KT 9999 SCT250 QNH2961INS
BECMG 1823/1824 15010G15KT 9999 SCT110 QNH2963INS
BECMG 1905/1906 16016KT 8000 -SHRA FEW040 SCT070 BKN100 QNH2963INS
BECMG 1907/1908 34009KT 9999 NSW FEW070 SCT100 QNH2966INS
BECMG 1914/1915 34012G18KT 9999 SCT035 QNH2980INS TX25/1821Z TN11/1812Z

Example: see airport list